sensor_id;sensor_type;location;lat;lon;timestamp;pressure;altitude;pressure_sealevel;temperature;humidity
38786;BME280;24535;45.508;12.252;2024-02-14T07:41:29;102441.75;;;13.08;55.74
38786;BME280;24535;45.508;12.252;2024-02-14T10:53:05;102471.00;;;14.57;55.59
38786;BME280;24535;45.508;12.252;2024-02-14T10:55:33;102471.09;;;14.55;55.17
38786;BME280;24535;45.508;12.252;2024-02-14T10:58:33;102476.41;;;14.55;55.41
38786;BME280;24535;45.508;12.252;2024-02-14T11:04:17;102453.56;;;14.53;55.78
38786;BME280;24535;45.508;12.252;2024-02-14T11:06:58;102449.19;;;14.52;55.73
38786;BME280;24535;45.508;12.252;2024-02-14T11:17:28;102437.88;;;14.48;56.05
38786;BME280;24535;45.508;12.252;2024-02-14T11:25:45;102422.69;;;14.52;56.30
38786;BME280;24535;45.508;12.252;2024-02-14T11:33:31;102416.25;;;14.56;56.67
38786;BME280;24535;45.508;12.252;2024-02-14T11:42:01;102417.91;;;14.58;57.02
38786;BME280;24535;45.508;12.252;2024-02-14T11:51:43;102414.34;;;14.58;57.24
38786;BME280;24535;45.508;12.252;2024-02-14T11:54:14;102414.19;;;14.61;57.58
38786;BME280;24535;45.508;12.252;2024-02-14T11:56:43;102407.34;;;14.57;57.43
38786;BME280;24535;45.508;12.252;2024-02-14T11:59:09;102412.41;;;14.62;57.30
38786;BME280;24535;45.508;12.252;2024-02-14T12:01:57;102411.47;;;14.63;57.75
38786;BME280;24535;45.508;12.252;2024-02-14T12:11:00;102405.13;;;14.65;57.54
38786;BME280;24535;45.508;12.252;2024-02-14T12:13:51;102397.16;;;14.65;57.60
38786;BME280;24535;45.508;12.252;2024-02-14T12:16:42;102391.00;;;14.65;57.55
38786;BME280;24535;45.508;12.252;2024-02-14T12:40:38;102368.50;;;14.72;57.72
38786;BME280;24535;45.508;12.252;2024-02-14T13:07:36;102376.53;;;14.70;58.47
38786;BME280;24535;45.508;12.252;2024-02-14T13:12:37;102379.97;;;14.72;58.35
38786;BME280;24535;45.508;12.252;2024-02-14T13:15:05;102366.88;;;14.69;58.21
38786;BME280;24535;45.508;12.252;2024-02-14T13:23:19;102372.84;;;14.73;58.65
38786;BME280;24535;45.508;12.252;2024-02-14T13:25:47;102377.97;;;14.76;58.63
38786;BME280;24535;45.508;12.252;2024-02-14T13:31:51;102363.94;;;14.74;58.71
38786;BME280;24535;45.508;12.252;2024-02-14T13:48:37;102373.44;;;14.78;58.82
38786;BME280;24535;45.508;12.252;2024-02-14T14:03:02;102357.50;;;14.78;58.74
38786;BME280;24535;45.508;12.252;2024-02-14T14:05:28;102359.25;;;14.79;58.77
38786;BME280;24535;45.508;12.252;2024-02-14T14:07:54;102344.16;;;14.79;58.67
38786;BME280;24535;45.508;12.252;2024-02-14T14:11:04;102347.50;;;14.83;58.74
38786;BME280;24535;45.508;12.252;2024-02-14T14:16:05;102336.69;;;14.86;59.12
38786;BME280;24535;45.508;12.252;2024-02-14T14:18:31;102331.59;;;14.83;58.93
38786;BME280;24535;45.508;12.252;2024-02-14T14:29:29;102316.41;;;14.85;59.34
38786;BME280;24535;45.508;12.252;2024-02-14T14:35:41;102312.72;;;14.88;59.43
38786;BME280;24535;45.508;12.252;2024-02-14T14:38:15;102321.38;;;14.91;59.37
38786;BME280;24535;45.508;12.252;2024-02-14T14:40:40;102318.88;;;14.88;59.67
38786;BME280;24535;45.508;12.252;2024-02-14T14:43:28;102317.84;;;14.91;59.77
38786;BME280;24535;45.508;12.252;2024-02-14T14:45:53;102320.41;;;14.92;59.84
38786;BME280;24535;45.508;12.252;2024-02-14T14:51:52;102335.47;;;14.92;59.55
38786;BME280;24535;45.508;12.252;2024-02-14T14:54:18;102333.75;;;14.91;59.39
38786;BME280;24535;45.508;12.252;2024-02-14T14:57:31;102351.41;;;14.92;59.85
38786;BME280;24535;45.508;12.252;2024-02-14T15:06:24;102373.50;;;14.92;59.68
38786;BME280;24535;45.508;12.252;2024-02-14T15:42:54;102390.69;;;14.85;60.20
38786;BME280;24535;45.508;12.252;2024-02-14T15:54:33;102384.44;;;14.86;59.88
38786;BME280;24535;45.508;12.252;2024-02-14T15:56:59;102382.00;;;14.83;59.75
38786;BME280;24535;45.508;12.252;2024-02-14T15:59:28;102379.41;;;14.81;60.25
38786;BME280;24535;45.508;12.252;2024-02-14T16:01:55;102382.91;;;14.82;60.13
38786;BME280;24535;45.508;12.252;2024-02-14T16:04:23;102382.91;;;14.82;60.04
38786;BME280;24535;45.508;12.252;2024-02-14T16:06:50;102389.06;;;14.82;60.44
38786;BME280;24535;45.508;12.252;2024-02-14T16:09:15;102387.31;;;14.83;59.53
38786;BME280;24535;45.508;12.252;2024-02-14T16:57:14;102423.25;;;14.73;60.75
38786;BME280;24535;45.508;12.252;2024-02-14T16:59:49;102404.94;;;14.68;60.43
38786;BME280;24535;45.508;12.252;2024-02-14T17:02:35;102418.97;;;14.70;60.75
38786;BME280;24535;45.508;12.252;2024-02-14T17:05:03;102423.41;;;14.70;60.60
38786;BME280;24535;45.508;12.252;2024-02-14T17:10:31;102417.38;;;14.68;61.18
38786;BME280;24535;45.508;12.252;2024-02-14T17:16:37;102430.69;;;14.66;60.96
38786;BME280;24535;45.508;12.252;2024-02-14T17:19:12;102429.00;;;14.65;60.97
38786;BME280;24535;45.508;12.252;2024-02-14T17:24:55;102437.13;;;14.62;60.39
38786;BME280;24535;45.508;12.252;2024-02-14T17:27:23;102437.22;;;14.61;60.75
38786;BME280;24535;45.508;12.252;2024-02-14T17:29:52;102434.56;;;14.61;61.12
38786;BME280;24535;45.508;12.252;2024-02-14T17:32:26;102432.94;;;14.58;60.69
38786;BME280;24535;45.508;12.252;2024-02-14T17:35:01;102441.66;;;14.60;60.79
38786;BME280;24535;45.508;12.252;2024-02-14T17:37:29;102434.94;;;14.54;60.44
38786;BME280;24535;45.508;12.252;2024-02-14T17:40:13;102446.28;;;14.56;60.62
38786;BME280;24535;45.508;12.252;2024-02-14T17:45:39;102442.94;;;14.53;60.78
38786;BME280;24535;45.508;12.252;2024-02-14T17:48:14;102434.13;;;14.52;60.91
38786;BME280;24535;45.508;12.252;2024-02-14T17:50:42;102421.22;;;14.46;60.85
38786;BME280;24535;45.508;12.252;2024-02-14T17:53:51;102436.09;;;14.49;61.28
38786;BME280;24535;45.508;12.252;2024-02-14T17:56:22;102441.16;;;14.53;60.80
38786;BME280;24535;45.508;12.252;2024-02-14T17:59:01;102439.59;;;14.49;61.18
38786;BME280;24535;45.508;12.252;2024-02-14T18:01:27;102441.47;;;14.47;61.10
38786;BME280;24535;45.508;12.252;2024-02-14T18:04:14;102447.72;;;14.46;60.85
38786;BME280;24535;45.508;12.252;2024-02-14T18:10:29;102462.94;;;14.43;61.39
38786;BME280;24535;45.508;12.252;2024-02-14T18:13:15;102460.47;;;14.40;60.66
38786;BME280;24535;45.508;12.252;2024-02-14T18:15:40;102462.25;;;14.39;61.19
38786;BME280;24535;45.508;12.252;2024-02-14T18:18:06;102463.97;;;14.40;61.45
38786;BME280;24535;45.508;12.252;2024-02-14T18:20:32;102463.22;;;14.38;61.33
38786;BME280;24535;45.508;12.252;2024-02-14T18:23:03;102458.81;;;14.37;61.35
38786;BME280;24535;45.508;12.252;2024-02-14T18:25:29;102467.63;;;14.38;61.24
38786;BME280;24535;45.508;12.252;2024-02-14T18:27:55;102479.19;;;14.37;61.10
38786;BME280;24535;45.508;12.252;2024-02-14T18:30:21;102478.47;;;14.33;61.26
38786;BME280;24535;45.508;12.252;2024-02-14T18:32:47;102484.47;;;14.37;60.94
38786;BME280;24535;45.508;12.252;2024-02-14T18:35:14;102479.34;;;14.33;61.14
38786;BME280;24535;45.508;12.252;2024-02-14T18:37:40;102472.44;;;14.31;60.92
38786;BME280;24535;45.508;12.252;2024-02-14T18:40:06;102471.63;;;14.29;60.91
38786;BME280;24535;45.508;12.252;2024-02-14T18:42:32;102473.44;;;14.28;60.97
38786;BME280;24535;45.508;12.252;2024-02-14T18:44:57;102478.84;;;14.27;61.03
38786;BME280;24535;45.508;12.252;2024-02-14T18:47:23;102462.13;;;14.25;60.90
38786;BME280;24535;45.508;12.252;2024-02-14T18:49:49;102468.28;;;14.25;60.83
38786;BME280;24535;45.508;12.252;2024-02-14T18:52:14;102472.75;;;14.25;61.12
38786;BME280;24535;45.508;12.252;2024-02-14T18:54:40;102466.34;;;14.29;61.49
38786;BME280;24535;45.508;12.252;2024-02-14T18:57:05;102457.63;;;14.27;61.50
38786;BME280;24535;45.508;12.252;2024-02-14T18:59:35;102458.53;;;14.26;61.36
38786;BME280;24535;45.508;12.252;2024-02-14T19:02:01;102466.50;;;14.26;61.44
38786;BME280;24535;45.508;12.252;2024-02-14T19:04:29;102457.69;;;14.25;61.44
38786;BME280;24535;45.508;12.252;2024-02-14T19:06:55;102468.38;;;14.24;61.58
38786;BME280;24535;45.508;12.252;2024-02-14T19:09:20;102457.78;;;14.24;61.61
38786;BME280;24535;45.508;12.252;2024-02-14T19:11:45;102461.28;;;14.24;61.59
38786;BME280;24535;45.508;12.252;2024-02-14T19:14:11;102450.94;;;14.20;61.21
38786;BME280;24535;45.508;12.252;2024-02-14T19:16:36;102451.94;;;14.17;61.55
38786;BME280;24535;45.508;12.252;2024-02-14T19:19:02;102452.75;;;14.19;61.06
38786;BME280;24535;45.508;12.252;2024-02-14T19:21:27;102453.59;;;14.20;60.93
38786;BME280;24535;45.508;12.252;2024-02-14T19:23:53;102446.50;;;14.20;61.49
38786;BME280;24535;45.508;12.252;2024-02-14T19:26:19;102447.50;;;14.18;61.02
38786;BME280;24535;45.508;12.252;2024-02-14T19:28:46;102453.59;;;14.20;61.45
38786;BME280;24535;45.508;12.252;2024-02-14T19:31:12;102463.19;;;14.22;61.49
38786;BME280;24535;45.508;12.252;2024-02-14T19:33:37;102461.38;;;14.23;61.04
38786;BME280;24535;45.508;12.252;2024-02-14T19:36:03;102459.59;;;14.23;61.30
38786;BME280;24535;45.508;12.252;2024-02-14T19:38:29;102471.13;;;14.22;60.92
38786;BME280;24535;45.508;12.252;2024-02-14T19:40:54;102476.34;;;14.24;61.62
38786;BME280;24535;45.508;12.252;2024-02-14T19:43:20;102466.69;;;14.23;61.09
38786;BME280;24535;45.508;12.252;2024-02-14T19:45:49;102472.91;;;14.22;61.35
38786;BME280;24535;45.508;12.252;2024-02-14T19:48:14;102470.34;;;14.20;61.20
38786;BME280;24535;45.508;12.252;2024-02-14T19:50:40;102470.44;;;14.19;61.30
38786;BME280;24535;45.508;12.252;2024-02-14T19:56:17;102470.59;;;14.16;60.67
38786;BME280;24535;45.508;12.252;2024-02-14T19:58:44;102489.91;;;14.18;60.90
38786;BME280;24535;45.508;12.252;2024-02-14T20:01:09;102487.34;;;14.16;60.79
38786;BME280;24535;45.508;12.252;2024-02-14T20:03:35;102471.56;;;14.15;61.01
38786;BME280;24535;45.508;12.252;2024-02-14T20:06:03;102483.94;;;14.14;60.96
38786;BME280;24535;45.508;12.252;2024-02-14T20:08:30;102482.16;;;14.15;60.88
38786;BME280;24535;45.508;12.252;2024-02-14T20:10:55;102486.59;;;14.14;60.84
38786;BME280;24535;45.508;12.252;2024-02-14T20:13:23;102486.66;;;14.13;60.81
38786;BME280;24535;45.508;12.252;2024-02-14T20:15:48;102476.22;;;14.09;60.65
38786;BME280;24535;45.508;12.252;2024-02-14T20:18:14;102470.16;;;14.07;60.00
38786;BME280;24535;45.508;12.252;2024-02-14T20:20:39;102482.47;;;14.08;60.50
38786;BME280;24535;45.508;12.252;2024-02-14T20:23:05;102480.06;;;14.04;60.26
38786;BME280;24535;45.508;12.252;2024-02-14T20:25:31;102487.25;;;14.02;60.45
38786;BME280;24535;45.508;12.252;2024-02-14T20:27:56;102494.25;;;14.03;60.61
38786;BME280;24535;45.508;12.252;2024-02-14T20:30:23;102487.16;;;14.03;60.33
38786;BME280;24535;45.508;12.252;2024-02-14T20:32:54;102491.66;;;14.01;60.55
38786;BME280;24535;45.508;12.252;2024-02-14T20:35:19;102496.13;;;14.01;59.69
38786;BME280;24535;45.508;12.252;2024-02-14T20:37:46;102484.75;;;13.99;60.48
38786;BME280;24535;45.508;12.252;2024-02-14T20:40:12;102495.28;;;14.00;60.03
38786;BME280;24535;45.508;12.252;2024-02-14T20:42:42;102489.13;;;14.00;60.09
38786;BME280;24535;45.508;12.252;2024-02-14T20:45:08;102492.72;;;13.99;59.82
38786;BME280;24535;45.508;12.252;2024-02-14T20:47:35;102486.47;;;14.00;60.08
38786;BME280;24535;45.508;12.252;2024-02-14T20:50:01;102501.50;;;13.99;60.13
38786;BME280;24535;45.508;12.252;2024-02-14T20:52:26;102497.22;;;13.97;59.71
38786;BME280;24535;45.508;12.252;2024-02-14T20:54:56;102492.09;;;13.94;60.12
38786;BME280;24535;45.508;12.252;2024-02-14T20:57:22;102490.38;;;13.93;59.62
38786;BME280;24535;45.508;12.252;2024-02-14T20:59:47;102492.97;;;13.94;59.97
38786;BME280;24535;45.508;12.252;2024-02-14T21:02:13;102487.72;;;13.93;59.88
38786;BME280;24535;45.508;12.252;2024-02-14T21:04:38;102493.97;;;13.92;60.02
38786;BME280;24535;45.508;12.252;2024-02-14T21:07:04;102489.53;;;13.92;59.99
38786;BME280;24535;45.508;12.252;2024-02-14T21:09:29;102493.03;;;13.93;59.62
38786;BME280;24535;45.508;12.252;2024-02-14T21:11:55;102484.38;;;13.89;59.42
38786;BME280;24535;45.508;12.252;2024-02-14T21:14:21;102486.16;;;13.89;59.86
38786;BME280;24535;45.508;12.252;2024-02-14T21:16:46;102494.22;;;13.87;59.21
38786;BME280;24535;45.508;12.252;2024-02-14T21:19:12;102487.22;;;13.86;59.24
38786;BME280;24535;45.508;12.252;2024-02-14T21:21:37;102492.41;;;13.88;59.49
38786;BME280;24535;45.508;12.252;2024-02-14T21:24:04;102493.28;;;13.88;59.37
38786;BME280;24535;45.508;12.252;2024-02-14T21:26:29;102498.56;;;13.88;59.03
38786;BME280;24535;45.508;12.252;2024-02-14T21:28:55;102491.66;;;13.85;59.23
38786;BME280;24535;45.508;12.252;2024-02-14T21:31:21;102491.66;;;13.85;59.08
38786;BME280;24535;45.508;12.252;2024-02-14T21:33:48;102484.63;;;13.84;59.23
38786;BME280;24535;45.508;12.252;2024-02-14T21:36:14;102475.97;;;13.81;59.49
38786;BME280;24535;45.508;12.252;2024-02-14T21:38:41;102489.22;;;13.81;59.19
38786;BME280;24535;45.508;12.252;2024-02-14T21:41:06;102485.72;;;13.80;59.53
38786;BME280;24535;45.508;12.252;2024-02-14T21:43:32;102486.66;;;13.79;59.16
38786;BME280;24535;45.508;12.252;2024-02-14T21:45:57;102489.41;;;13.78;59.20
38786;BME280;24535;45.508;12.252;2024-02-14T21:48:24;102487.66;;;13.77;59.70
38786;BME280;24535;45.508;12.252;2024-02-14T21:50:49;102488.56;;;13.77;58.91
38786;BME280;24535;45.508;12.252;2024-02-14T21:53:15;102501.63;;;13.80;59.77
38786;BME280;24535;45.508;12.252;2024-02-14T21:55:40;102493.84;;;13.77;59.28
38786;BME280;24535;45.508;12.252;2024-02-14T21:58:06;102502.47;;;13.81;58.92
38786;BME280;24535;45.508;12.252;2024-02-14T22:00:32;102498.19;;;13.78;59.53
38786;BME280;24535;45.508;12.252;2024-02-14T22:02:57;102506.91;;;13.80;58.88
38786;BME280;24535;45.508;12.252;2024-02-14T22:05:23;102513.94;;;13.81;58.87
38786;BME280;24535;45.508;12.252;2024-02-14T22:07:50;102513.16;;;13.79;59.07
38786;BME280;24535;45.508;12.252;2024-02-14T22:10:17;102506.22;;;13.77;59.76
38786;BME280;24535;45.508;12.252;2024-02-14T22:12:43;102516.91;;;13.75;59.29
38786;BME280;24535;45.508;12.252;2024-02-14T22:15:08;102505.53;;;13.73;58.67
38786;BME280;24535;45.508;12.252;2024-02-14T22:17:34;102505.44;;;13.75;59.59
38786;BME280;24535;45.508;12.252;2024-02-14T22:20:05;102503.81;;;13.72;59.13
38786;BME280;24535;45.508;12.252;2024-02-14T22:22:32;102499.31;;;13.74;58.44
38786;BME280;24535;45.508;12.252;2024-02-14T22:24:58;102495.78;;;13.74;58.51
38786;BME280;24535;45.508;12.252;2024-02-14T22:27:24;102501.09;;;13.74;58.87
38786;BME280;24535;45.508;12.252;2024-02-14T22:29:50;102495.84;;;13.72;59.10
38786;BME280;24535;45.508;12.252;2024-02-14T22:32:15;102498.44;;;13.74;58.75
38786;BME280;24535;45.508;12.252;2024-02-14T22:34:41;102488.00;;;13.71;59.07
38786;BME280;24535;45.508;12.252;2024-02-14T22:37:07;102486.28;;;13.70;58.95
38786;BME280;24535;45.508;12.252;2024-02-14T22:39:32;102488.94;;;13.70;58.58
38786;BME280;24535;45.508;12.252;2024-02-14T22:41:58;102484.56;;;13.69;58.66
38786;BME280;24535;45.508;12.252;2024-02-14T22:44:23;102480.13;;;13.69;58.51
38786;BME280;24535;45.508;12.252;2024-02-14T22:46:49;102470.56;;;13.67;58.61
38786;BME280;24535;45.508;12.252;2024-02-14T22:49:16;102459.19;;;13.65;58.76
38786;BME280;24535;45.508;12.252;2024-02-14T22:51:42;102462.63;;;13.67;59.02
38786;BME280;24535;45.508;12.252;2024-02-14T22:54:07;102465.16;;;13.68;58.85
38786;BME280;24535;45.508;12.252;2024-02-14T22:56:36;102467.75;;;13.70;59.47
38786;BME280;24535;45.508;12.252;2024-02-14T22:59:02;102464.31;;;13.68;59.06
38786;BME280;24535;45.508;12.252;2024-02-14T23:01:27;102466.03;;;13.69;58.66
38786;BME280;24535;45.508;12.252;2024-02-14T23:03:53;102471.41;;;13.67;59.28
38786;BME280;24535;45.508;12.252;2024-02-14T23:06:19;102472.13;;;13.71;58.75
38786;BME280;24535;45.508;12.252;2024-02-14T23:08:44;102467.75;;;13.70;59.14
38786;BME280;24535;45.508;12.252;2024-02-14T23:11:10;102458.94;;;13.69;58.88
38786;BME280;24535;45.508;12.252;2024-02-14T23:13:36;102458.94;;;13.69;59.07
38786;BME280;24535;45.508;12.252;2024-02-14T23:16:05;102457.88;;;13.73;59.25
38786;BME280;24535;45.508;12.252;2024-02-14T23:18:30;102454.44;;;13.71;59.13
38786;BME280;24535;45.508;12.252;2024-02-14T23:20:57;102450.13;;;13.69;59.32
38786;BME280;24535;45.508;12.252;2024-02-14T23:23:23;102465.88;;;13.72;59.08
38786;BME280;24535;45.508;12.252;2024-02-14T23:25:49;102469.47;;;13.71;58.89
38786;BME280;24535;45.508;12.252;2024-02-14T23:28:14;102472.97;;;13.71;59.09
38786;BME280;24535;45.508;12.252;2024-02-14T23:30:41;102465.88;;;13.72;59.01
38786;BME280;24535;45.508;12.252;2024-02-14T23:33:10;102463.22;;;13.72;58.71
38786;BME280;24535;45.508;12.252;2024-02-14T23:35:40;102463.22;;;13.72;59.49
38786;BME280;24535;45.508;12.252;2024-02-14T23:38:09;102468.53;;;13.72;59.09
38786;BME280;24535;45.508;12.252;2024-02-14T23:40:36;102471.16;;;13.72;58.95
38786;BME280;24535;45.508;12.252;2024-02-14T23:43:02;102460.72;;;13.69;59.24
38786;BME280;24535;45.508;12.252;2024-02-14T23:45:29;102465.16;;;13.68;59.27
38786;BME280;24535;45.508;12.252;2024-02-14T23:47:55;102471.16;;;13.72;59.12
38786;BME280;24535;45.508;12.252;2024-02-14T23:50:24;102472.13;;;13.71;59.47
38786;BME280;24535;45.508;12.252;2024-02-14T23:52:54;102473.81;;;13.72;59.06
38786;BME280;24535;45.508;12.252;2024-02-14T23:55:20;102473.06;;;13.70;59.22
38786;BME280;24535;45.508;12.252;2024-02-14T23:57:46;102470.47;;;13.68;58.72
